Detroit, Michigan
Current Conditions -  °F | °C
As of 5:00 PM on Wednesday 28 Jan 2015 (Local Time) from CYQG Reporting Station
Broken Clouds Broken Clouds  
Wind Chill: -12°   Ceiling: 28000
Heat Index: -6°   Visibility: 15mi
Dew Point: -10°   Wind: 9mph
Humidity: 74%   Direction: 180°S
Pressure: 30.27"   Gusts: NA
Location:  42.33°N, 83.05°W
Report Text: CYQG 282200Z 18008KT 15SM BKN280 M06/M10 A3027 RMK CS7 CC ASOCT SLP262
Loading
Personal Weather Stations






























Interactive Weather Map New forecast layout! Learn more

10-Day Weather Forecast

Advertisements
Track Severe Weather on mobile